Wauchula, Florida
Current Conditions -  °F | °C
As of 7:15 PM on Friday 21 Nov 2014 (Local Time) from KBOW Reporting Station
Scattered Clouds Scattered Clouds  
Wind Chill: 66°   Ceiling: Unl
Heat Index: 66°   Visibility: 10mi
Dew Point: 55°   Wind: 13mph
Humidity: 68%   Direction: 30°NNE
Pressure: 30.26"   Gusts: 17mph
Location:  27.55°N, 81.81°W
Report Text: KBOW 220015Z AUTO 03011G15KT 10SM SCT085 SCT090 19/13 A3026 RMK AO2
Loading
Personal Weather Stations






























Interactive Weather Map New forecast layout! Learn more

10-Day Weather Forecast

Advertisements
Track Severe Weather on mobile